首页
METAR-TAF:

METAR-TAF

机场 :

Estherville Municipal Airport

Estherville, 艾奥瓦州, 美国

纬度: 43-24-04N, 经度: 094-44-50W, 海拔: 401米

当前天气观测

该预报发布于19分钟前的21:52 UTC
风速24节,风向,有时为34节阵风
温度 -9°C
湿度 67%
气压 1022 hPa
能見度: 16.1公里
天空无云

METAR: KEST 122152Z AUTO 17024G34KT 10SM CLR M09/M14 A3018 RMK AO2 PK WND 18034/2143 SLP249 T10891144

时间: 16:11 (22:11 UTC)


TAF: 丢失

超过4000个机场的气象观测和天气预报(METAR&TAF报告)。

可查询的气象台以黄色和红色小点在地图上表示。

将鼠标移到小点上方,可查看气象台名称。

然后点击查看天气观测和预报。

如需切换地图:点击带黑十字的绿色按钮放大地图;点击带横线的绿色按钮缩小地图;或者点击绿色箭头查看邻近地区的地图。


METAR-TAF: